createdAt,value
2022-10-09T00:00:50.496Z,96766.16
2022-10-09T00:03:18.075Z,96766.31
2022-10-09T00:05:45.505Z,96764.75
2022-10-09T00:08:12.831Z,96769.00
2022-10-09T00:10:43.769Z,96766.69
2022-10-09T00:13:11.459Z,96770.56
2022-10-09T00:15:43.950Z,96767.31
2022-10-09T00:18:13.762Z,96771.72
2022-10-09T00:20:44.138Z,96772.34
2022-10-09T00:23:14.622Z,96760.25
2022-10-09T00:25:57.060Z,96775.34
2022-10-09T00:28:26.445Z,96765.78
2022-10-09T00:30:54.272Z,96768.13
2022-10-09T00:33:21.563Z,96764.22
2022-10-09T00:35:49.113Z,96769.00
2022-10-09T00:38:16.435Z,96761.75
2022-10-09T00:40:43.508Z,96760.44
2022-10-09T00:43:16.103Z,96757.53
2022-10-09T00:45:55.898Z,96761.22
2022-10-09T00:48:23.439Z,96758.66
2022-10-09T00:50:55.899Z,96755.91
2022-10-09T00:53:26.557Z,96755.22
2022-10-09T00:55:53.769Z,96754.06
2022-10-09T00:58:22.130Z,96752.75
2022-10-09T01:00:49.505Z,96747.97
2022-10-09T01:03:16.765Z,96741.81
2022-10-09T01:06:08.968Z,96742.50
2022-10-09T01:08:46.540Z,96741.19
2022-10-09T01:11:48.251Z,96740.22
2022-10-09T01:14:33.862Z,96743.38
2022-10-09T01:17:10.575Z,96744.19
2022-10-09T01:19:55.832Z,96740.47
2022-10-09T01:22:48.772Z,96743.41
2022-10-09T01:25:45.128Z,96745.97
2022-10-09T01:28:14.415Z,96743.91
2022-10-09T01:30:42.559Z,96746.16
2022-10-09T01:33:11.064Z,96735.88
2022-10-09T01:35:39.634Z,96731.09
2022-10-09T01:38:07.537Z,96724.75
2022-10-09T01:40:36.100Z,96731.28
2022-10-09T01:43:03.707Z,96725.91
2022-10-09T01:45:39.698Z,96738.25
2022-10-09T01:48:12.775Z,96725.22
2022-10-09T01:50:44.989Z,96713.72
2022-10-09T01:53:17.703Z,96720.25
2022-10-09T01:56:07.114Z,96715.31
2022-10-09T01:58:55.732Z,96721.09
2022-10-09T02:01:32.144Z,96711.19
2022-10-09T02:04:02.890Z,96706.81
2022-10-09T02:06:31.247Z,96706.97
2022-10-09T02:08:59.488Z,96704.19
2022-10-09T02:11:31.381Z,96696.22
2022-10-09T02:13:59.085Z,96701.19
2022-10-09T02:16:39.069Z,96698.91
2022-10-09T02:19:16.453Z,96690.00
2022-10-09T02:21:59.211Z,96693.63
2022-10-09T02:24:27.568Z,96680.47
2022-10-09T02:26:55.154Z,96674.91
2022-10-09T02:29:22.215Z,96670.53
2022-10-09T02:31:49.386Z,96665.75
2022-10-09T02:34:19.358Z,96666.28
2022-10-09T02:36:48.307Z,96667.44
2022-10-09T02:39:15.670Z,96661.88
2022-10-09T02:41:42.760Z,96653.41
2022-10-09T02:44:10.214Z,96664.44
2022-10-09T02:46:38.425Z,96668.66
2022-10-09T02:49:06.726Z,96667.34
2022-10-09T02:51:34.252Z,96660.81
2022-10-09T02:54:01.306Z,96664.94
2022-10-09T02:56:28.957Z,96651.81
2022-10-09T02:58:56.331Z,96653.56
2022-10-09T03:01:24.298Z,96645.47
2022-10-09T03:03:51.999Z,96650.47
2022-10-09T03:06:22.657Z,96646.78
2022-10-09T03:08:51.047Z,96643.53
2022-10-09T03:11:20.958Z,96654.47
2022-10-09T03:13:48.379Z,96652.16
2022-10-09T03:16:20.757Z,96648.22
2022-10-09T03:18:48.317Z,96651.47
2022-10-09T03:21:18.396Z,96645.84
2022-10-09T03:23:45.525Z,96641.41
2022-10-09T03:26:15.226Z,96644.75
2022-10-09T03:28:47.428Z,96642.72
2022-10-09T03:31:39.262Z,96644.13
2022-10-09T03:34:03.188Z,96649.88
2022-10-09T03:36:30.274Z,96640.25
2022-10-09T03:38:57.333Z,96644.06
2022-10-09T03:41:24.377Z,96635.59
2022-10-09T03:43:51.482Z,96635.88
2022-10-09T03:46:18.569Z,96636.91
2022-10-09T03:48:45.707Z,96638.94
2022-10-09T03:51:12.775Z,96638.41
2022-10-09T03:53:39.913Z,96643.69
2022-10-09T03:56:06.949Z,96635.75
2022-10-09T03:58:34.051Z,96634.41
2022-10-09T04:01:01.190Z,96638.41
2022-10-09T04:03:28.890Z,96639.19
2022-10-09T04:05:56.010Z,96638.63
2022-10-09T04:08:23.093Z,96619.59
2022-10-09T04:10:59.483Z,96630.06
2022-10-09T04:13:26.657Z,96631.31
2022-10-09T04:15:54.885Z,96625.41
2022-10-09T04:18:22.539Z,96622.38
2022-10-09T04:20:53.698Z,96630.88
2022-10-09T04:23:24.445Z,96630.16
2022-10-09T04:25:55.921Z,96624.16
2022-10-09T04:28:23.582Z,96625.34
2022-10-09T04:30:50.806Z,96623.00
2022-10-09T04:33:18.381Z,96623.88
2022-10-09T04:35:49.762Z,96628.94
2022-10-09T04:38:17.383Z,96629.34
2022-10-09T04:40:44.470Z,96621.44
2022-10-09T04:43:11.580Z,96614.47
2022-10-09T04:45:41.790Z,96625.41
2022-10-09T04:48:08.914Z,96626.03
2022-10-09T04:50:39.179Z,96627.63
2022-10-09T04:53:06.321Z,96624.16
2022-10-09T04:55:33.379Z,96618.34
2022-10-09T04:58:00.504Z,96621.59
2022-10-09T05:00:27.731Z,96618.25
2022-10-09T05:02:54.828Z,96625.66
2022-10-09T05:05:21.849Z,96625.34
2022-10-09T05:07:48.944Z,96625.66
2022-10-09T05:10:16.006Z,96626.81
2022-10-09T05:12:43.133Z,96628.78
2022-10-09T05:15:10.356Z,96633.78
2022-10-09T05:17:37.473Z,96637.69
2022-10-09T05:20:04.786Z,96638.09
2022-10-09T05:22:31.862Z,96632.06
2022-10-09T05:24:58.883Z,96628.25
2022-10-09T05:27:25.972Z,96626.75
2022-10-09T05:29:53.040Z,96626.59
2022-10-09T05:32:20.118Z,96626.75
2022-10-09T05:34:47.213Z,96623.47
2022-10-09T05:37:14.265Z,96628.78
2022-10-09T05:39:41.306Z,96632.59
2022-10-09T05:42:08.416Z,96638.94
2022-10-09T05:44:35.532Z,96616.03
2022-10-09T05:47:02.572Z,96635.75
2022-10-09T05:49:29.655Z,96634.25
2022-10-09T05:51:56.739Z,96629.41
2022-10-09T05:54:23.786Z,96624.81
2022-10-09T05:56:50.987Z,96624.56
2022-10-09T05:59:22.113Z,96622.31
2022-10-09T06:01:51.161Z,96624.59
2022-10-09T06:04:23.391Z,96628.31
2022-10-09T06:06:50.956Z,96633.00
2022-10-09T06:09:22.833Z,96628.63
2022-10-09T06:11:50.855Z,96615.09
2022-10-09T06:14:18.157Z,96623.13
2022-10-09T06:16:45.765Z,96620.91
2022-10-09T06:19:15.309Z,96611.84
2022-10-09T06:21:42.987Z,96618.53
2022-10-09T06:24:26.976Z,96619.69
2022-10-09T06:26:55.158Z,96616.97
2022-10-09T06:29:22.217Z,96631.50
2022-10-09T06:31:49.400Z,96627.63
2022-10-09T06:34:16.600Z,96622.75
2022-10-09T06:36:43.708Z,96625.13
2022-10-09T06:39:11.135Z,96628.66
2022-10-09T06:41:38.203Z,96627.16
2022-10-09T06:44:25.465Z,96626.50
2022-10-09T06:46:52.542Z,96615.50
2022-10-09T06:49:19.565Z,96628.81
2022-10-09T06:51:46.876Z,96621.75
2022-10-09T06:54:16.191Z,96627.13
2022-10-09T06:56:43.567Z,96624.38
2022-10-09T06:59:11.133Z,96630.72
2022-10-09T07:01:38.536Z,96630.66
2022-10-09T07:04:10.671Z,96624.47
2022-10-09T07:06:40.131Z,96624.69
2022-10-09T07:09:09.658Z,96614.66
2022-10-09T07:11:39.649Z,96629.31
2022-10-09T07:14:08.817Z,96623.97
2022-10-09T07:16:38.551Z,96622.47
2022-10-09T07:19:11.409Z,96624.75
2022-10-09T07:21:43.101Z,96614.72
2022-10-09T07:24:11.831Z,96618.75
2022-10-09T07:26:42.425Z,96637.28
2022-10-09T07:29:12.183Z,96625.81
2022-10-09T07:31:39.288Z,96627.59
2022-10-09T07:34:06.602Z,96627.72
2022-10-09T07:36:34.112Z,96626.28
2022-10-09T07:39:01.370Z,96620.88
2022-10-09T07:41:29.990Z,96619.38
2022-10-09T07:43:58.171Z,96611.81
2022-10-09T07:46:29.752Z,96612.50
2022-10-09T07:49:00.319Z,96611.88
2022-10-09T07:51:29.106Z,96610.31
2022-10-09T07:53:57.240Z,96611.88
2022-10-09T07:56:35.930Z,96611.28
2022-10-09T07:59:07.825Z,96601.25
2022-10-09T08:01:35.573Z,96603.69
2022-10-09T08:04:03.731Z,96600.56
2022-10-09T08:06:31.836Z,96606.00
2022-10-09T08:09:00.753Z,96596.72
2022-10-09T08:11:29.806Z,96584.31
2022-10-09T08:13:57.617Z,96596.19
2022-10-09T08:16:25.789Z,96583.59
2022-10-09T08:18:58.449Z,96593.97
2022-10-09T08:21:27.713Z,96594.66
2022-10-09T08:23:56.636Z,96588.88
2022-10-09T08:26:25.158Z,96590.16
2022-10-09T08:28:55.497Z,96589.03
2022-10-09T08:31:23.788Z,96583.19
2022-10-09T08:33:58.716Z,96580.22
2022-10-09T08:36:26.536Z,96586.47
2022-10-09T08:38:54.355Z,96583.56
2022-10-09T08:41:33.353Z,96581.19
2022-10-09T08:44:11.022Z,96590.75
2022-10-09T08:46:47.531Z,96581.25
2022-10-09T08:49:34.809Z,96588.47
2022-10-09T08:52:15.687Z,96588.97
2022-10-09T08:54:43.077Z,96580.75
2022-10-09T08:57:14.341Z,96573.31
2022-10-09T08:59:41.865Z,96572.53
2022-10-09T09:02:08.924Z,96572.56
2022-10-09T09:04:36.073Z,96570.06
2022-10-09T09:07:13.770Z,96570.06
2022-10-09T09:09:49.030Z,96577.25
2022-10-09T09:12:43.869Z,96566.56
2022-10-09T09:15:25.348Z,96559.16
2022-10-09T09:17:58.465Z,96563.25
2022-10-09T09:20:54.861Z,96558.63
2022-10-09T09:23:33.647Z,96563.22
2022-10-09T09:26:02.055Z,96552.22
2022-10-09T09:28:34.583Z,96556.31
2022-10-09T09:31:22.631Z,96558.81
2022-10-09T09:33:52.614Z,96554.72
2022-10-09T09:36:26.571Z,96551.69
2022-10-09T09:39:35.435Z,96536.75
2022-10-09T09:41:42.761Z,96548.19
2022-10-09T09:44:12.961Z,96548.59
2022-10-09T09:46:41.789Z,96540.44
2022-10-09T09:49:35.096Z,96537.63
2022-10-09T09:52:02.584Z,96533.03
2022-10-09T09:54:30.757Z,96532.94
2022-10-09T09:57:13.071Z,96514.13
2022-10-09T09:59:44.196Z,96525.91
2022-10-09T10:02:18.562Z,96531.50
2022-10-09T10:05:01.015Z,96511.81
2022-10-09T10:07:32.100Z,96511.03
2022-10-09T10:10:03.594Z,96520.53
2022-10-09T10:12:30.872Z,96516.19
2022-10-09T10:14:58.161Z,96518.97
2022-10-09T10:17:29.552Z,96514.28
2022-10-09T10:19:56.783Z,96508.34
2022-10-09T10:22:26.609Z,96508.72
2022-10-09T10:24:57.634Z,96502.44
2022-10-09T10:27:27.755Z,96505.59
2022-10-09T10:29:59.720Z,96495.84
2022-10-09T10:32:35.179Z,96499.47
2022-10-09T10:35:15.114Z,96497.91
2022-10-09T10:37:49.944Z,96499.47
2022-10-09T10:40:24.734Z,96495.88
2022-10-09T10:43:11.322Z,96496.38
2022-10-09T10:45:41.096Z,96492.84
2022-10-09T10:48:13.151Z,96497.59
2022-10-09T10:51:08.908Z,96491.75
2022-10-09T10:53:41.569Z,96485.00
2022-10-09T10:56:27.492Z,96489.00
2022-10-09T10:59:17.968Z,96479.88
2022-10-09T11:02:06.798Z,96480.72
2022-10-09T11:04:44.371Z,96475.22
2022-10-09T11:07:48.577Z,96476.38
2022-10-09T11:10:34.440Z,96468.91
2022-10-09T11:13:19.540Z,96475.22
2022-10-09T11:16:07.100Z,96468.13
2022-10-09T11:18:50.686Z,96463.00
2022-10-09T11:21:23.767Z,96454.72
2022-10-09T11:24:33.986Z,96457.09
2022-10-09T11:27:18.282Z,96449.59
2022-10-09T11:29:47.164Z,96449.16
2022-10-09T11:32:20.409Z,96446.03
2022-10-09T11:35:06.775Z,96455.47
2022-10-09T11:37:39.111Z,96454.31
2022-10-09T11:40:13.542Z,96439.72
2022-10-09T11:42:40.813Z,96446.38
2022-10-09T11:45:27.186Z,96442.81
2022-10-09T11:48:30.430Z,96438.09
2022-10-09T11:51:19.856Z,96437.72
2022-10-09T11:53:47.232Z,96436.56
2022-10-09T11:56:23.523Z,96434.53
2022-10-09T11:58:57.427Z,96427.84
2022-10-09T12:01:32.206Z,96421.16
2022-10-09T12:04:06.890Z,96423.06
2022-10-09T12:06:47.087Z,96404.13
2022-10-09T12:09:35.790Z,96409.59
2022-10-09T12:12:19.731Z,96403.28
2022-10-09T12:14:49.210Z,96407.34
2022-10-09T12:17:17.929Z,96400.94
2022-10-09T12:19:45.111Z,96405.63
2022-10-09T12:22:21.398Z,96389.91
2022-10-09T12:24:51.924Z,96393.81
2022-10-09T12:27:27.379Z,96391.03
2022-10-09T12:29:57.434Z,96384.22
2022-10-09T12:32:35.414Z,96380.28
2022-10-09T12:35:18.569Z,96376.28
2022-10-09T12:37:45.699Z,96380.09
2022-10-09T12:40:28.720Z,96368.56
2022-10-09T12:42:58.351Z,96356.28
2022-10-09T12:45:30.764Z,96365.72
2022-10-09T12:48:10.531Z,96349.16
2022-10-09T12:50:37.981Z,96350.63
2022-10-09T12:53:13.015Z,96359.28
2022-10-09T12:55:50.625Z,96349.84
2022-10-09T12:58:31.092Z,96341.97
2022-10-09T13:01:01.839Z,96330.25
2022-10-09T13:03:43.737Z,96333.47
2022-10-09T13:06:17.712Z,96322.16
2022-10-09T13:08:45.752Z,96326.41
2022-10-09T13:11:24.211Z,96322.31
2022-10-09T13:13:53.556Z,96328.53
2022-10-09T13:16:21.918Z,96316.41
2022-10-09T13:18:59.836Z,96322.19
2022-10-09T13:21:31.500Z,96313.03
2022-10-09T13:24:09.580Z,96311.16
2022-10-09T13:26:38.668Z,96309.66
2022-10-09T13:29:07.423Z,96308.53
2022-10-09T13:31:36.895Z,96296.56
2022-10-09T13:34:11.416Z,96297.09
2022-10-09T13:36:38.475Z,96297.50
2022-10-09T13:39:05.620Z,96294.66
2022-10-09T13:41:33.109Z,96291.84
2022-10-09T13:44:00.430Z,96294.44
2022-10-09T13:46:27.594Z,96293.97
2022-10-09T13:48:54.682Z,96288.94
2022-10-09T13:51:21.963Z,96287.00
2022-10-09T13:53:50.017Z,96273.78
2022-10-09T13:56:17.454Z,96277.66
2022-10-09T13:58:44.542Z,96265.88
2022-10-09T14:01:11.701Z,96262.91
2022-10-09T14:03:38.867Z,96253.19
2022-10-09T14:06:06.435Z,96253.44
2022-10-09T14:08:33.556Z,96255.38
2022-10-09T14:11:01.281Z,96246.03
2022-10-09T14:13:28.820Z,96246.84
2022-10-09T14:15:56.082Z,96236.97
2022-10-09T14:18:23.170Z,96238.00
2022-10-09T14:20:50.474Z,96233.44
2022-10-09T14:23:17.522Z,96235.00
2022-10-09T14:25:44.612Z,96228.19
2022-10-09T14:28:11.719Z,96223.97
2022-10-09T14:30:43.470Z,96220.91
2022-10-09T14:33:10.802Z,96226.16
2022-10-09T14:35:38.253Z,96209.50
2022-10-09T14:38:05.452Z,96213.09
2022-10-09T14:40:32.512Z,96201.06
2022-10-09T14:43:00.201Z,96206.78
2022-10-09T14:45:28.914Z,96195.75
2022-10-09T14:47:56.787Z,96191.59
2022-10-09T14:50:23.931Z,96185.59
2022-10-09T14:52:51.356Z,96190.16
2022-10-09T14:55:18.795Z,96190.59
2022-10-09T14:57:45.945Z,96183.03
2022-10-09T15:00:13.533Z,96176.13
2022-10-09T15:02:40.660Z,96172.19
2022-10-09T15:05:08.663Z,96169.34
2022-10-09T15:07:35.732Z,96168.41
2022-10-09T15:10:02.893Z,96163.94
2022-10-09T15:12:29.972Z,96156.84
2022-10-09T15:14:57.056Z,96156.72
2022-10-09T15:17:24.148Z,96159.84
2022-10-09T15:19:51.294Z,96152.50
2022-10-09T15:22:18.881Z,96147.47
2022-10-09T15:24:47.422Z,96143.94
2022-10-09T15:27:14.519Z,96145.03
2022-10-09T15:29:41.557Z,96143.03
2022-10-09T15:32:08.653Z,96139.63
2022-10-09T15:34:40.624Z,96135.56
2022-10-09T15:37:08.118Z,96135.44
2022-10-09T15:39:35.381Z,96129.50
2022-10-09T15:42:03.443Z,96130.00
2022-10-09T15:44:30.421Z,96127.47
2022-10-09T15:46:57.478Z,96113.97
2022-10-09T15:49:24.516Z,96118.19
2022-10-09T15:51:51.667Z,96120.34
2022-10-09T15:54:18.776Z,96114.56
2022-10-09T15:56:45.896Z,96106.91
2022-10-09T15:59:14.063Z,96107.50
2022-10-09T16:01:41.197Z,96104.69
2022-10-09T16:04:08.751Z,96105.19
2022-10-09T16:06:35.815Z,96106.28
2022-10-09T16:09:03.988Z,96103.16
2022-10-09T16:11:31.821Z,96104.81
2022-10-09T16:13:59.236Z,96101.94
2022-10-09T16:16:27.642Z,96104.75
2022-10-09T16:18:55.882Z,96103.25
2022-10-09T16:21:25.494Z,96101.66
2022-10-09T16:23:58.081Z,96106.16
2022-10-09T16:26:28.287Z,96104.59
2022-10-09T16:28:55.491Z,96101.59
2022-10-09T16:31:25.829Z,96106.94
2022-10-09T16:33:53.062Z,96106.84
2022-10-09T16:36:20.854Z,96107.28
2022-10-09T16:38:48.034Z,96104.44
2022-10-09T16:41:18.562Z,96102.38
2022-10-09T16:43:47.662Z,96118.78
2022-10-09T16:46:25.087Z,96107.78
2022-10-09T16:48:53.563Z,96114.50
2022-10-09T16:51:23.511Z,96112.22
2022-10-09T16:53:52.802Z,96110.53
2022-10-09T16:56:21.516Z,96120.16
2022-10-09T16:58:49.312Z,96118.31
2022-10-09T17:01:17.272Z,96110.84
2022-10-09T17:03:44.441Z,96116.31
2022-10-09T17:06:14.598Z,96112.72
2022-10-09T17:08:41.780Z,96112.56
2022-10-09T17:11:10.454Z,96119.97
2022-10-09T17:13:37.680Z,96121.66
2022-10-09T17:16:13.289Z,96116.94
2022-10-09T17:18:43.451Z,96120.13
2022-10-09T17:21:16.182Z,96120.13
2022-10-09T17:23:43.746Z,96109.16
2022-10-09T17:26:14.473Z,96107.97
2022-10-09T17:28:42.185Z,96107.41
2022-10-09T17:31:14.195Z,96103.56
2022-10-09T17:33:46.158Z,96099.69
2022-10-09T17:36:16.188Z,96100.66
2022-10-09T17:38:43.625Z,96093.44
2022-10-09T17:41:12.854Z,96097.69
2022-10-09T17:43:40.429Z,96098.38
2022-10-09T17:46:07.667Z,96102.25
2022-10-09T17:48:36.077Z,96093.97
2022-10-09T17:51:04.078Z,96094.28
2022-10-09T17:53:31.831Z,96091.25
2022-10-09T17:56:03.792Z,96091.16
2022-10-09T17:58:30.957Z,96103.16
2022-10-09T18:00:58.126Z,96096.34
2022-10-09T18:03:25.339Z,96091.16
2022-10-09T18:05:52.421Z,96090.78
2022-10-09T18:08:19.894Z,96095.88
2022-10-09T18:10:46.967Z,96085.69
2022-10-09T18:13:16.377Z,96088.25
2022-10-09T18:15:43.821Z,96090.09
2022-10-09T18:18:11.360Z,96085.00
2022-10-09T18:20:39.609Z,96083.03
2022-10-09T18:23:08.018Z,96079.44
2022-10-09T18:25:40.593Z,96080.59
2022-10-09T18:28:07.795Z,96079.31
2022-10-09T18:30:34.971Z,96071.09
2022-10-09T18:33:02.022Z,96075.72
2022-10-09T18:35:30.280Z,96080.16
2022-10-09T18:37:57.394Z,96067.06
2022-10-09T18:40:24.434Z,96078.69
2022-10-09T18:42:52.634Z,96077.03
2022-10-09T18:45:20.228Z,96077.38
2022-10-09T18:47:47.573Z,96066.31
2022-10-09T18:50:15.671Z,96071.56
2022-10-09T18:52:43.583Z,96067.69
2022-10-09T18:55:14.106Z,96071.09
2022-10-09T18:57:41.863Z,96066.78
2022-10-09T19:00:09.660Z,96063.63
2022-10-09T19:02:36.881Z,96057.69
2022-10-09T19:05:04.269Z,96056.00
2022-10-09T19:07:31.422Z,96051.16
2022-10-09T19:09:58.649Z,96058.38
2022-10-09T19:12:26.130Z,96047.38
2022-10-09T19:14:53.459Z,96042.56
2022-10-09T19:17:20.601Z,96044.16
2022-10-09T19:19:47.892Z,96038.69
2022-10-09T19:22:18.148Z,96035.56
2022-10-09T19:24:47.248Z,96037.97
2022-10-09T19:27:14.921Z,96031.53
2022-10-09T19:29:42.009Z,96019.47
2022-10-09T19:32:09.052Z,96021.47
2022-10-09T19:34:36.161Z,96018.69
2022-10-09T19:39:37.221Z,96009.66
2022-10-09T19:42:04.328Z,96014.78
2022-10-09T19:44:31.465Z,96013.22
2022-10-09T19:46:58.631Z,96010.06
2022-10-09T19:49:25.829Z,96006.59
2022-10-09T19:51:53.048Z,96008.53
2022-10-09T19:54:20.250Z,96016.00
2022-10-09T19:56:47.442Z,96002.69
2022-10-09T19:59:14.596Z,96009.34
2022-10-09T20:01:41.708Z,96011.72
2022-10-09T20:04:10.503Z,96016.00
2022-10-09T20:06:40.446Z,96008.97
2022-10-09T20:09:09.539Z,96010.97
2022-10-09T20:11:36.989Z,96010.59
2022-10-09T20:14:04.603Z,96010.56
2022-10-09T20:16:32.011Z,96008.59
2022-10-09T20:19:00.570Z,96009.03
2022-10-09T20:21:30.260Z,96016.06
2022-10-09T20:23:58.160Z,96009.03
2022-10-09T20:26:25.647Z,96014.56
2022-10-09T20:28:55.596Z,96008.25
2022-10-09T20:31:25.656Z,96005.91
2022-10-09T20:33:54.597Z,96001.97
2022-10-09T20:36:35.189Z,96002.00
2022-10-09T20:39:05.459Z,96000.44
2022-10-09T20:41:33.335Z,95997.25
2022-10-09T20:44:01.833Z,95999.22
2022-10-09T20:46:30.770Z,96000.03
2022-10-09T20:48:59.421Z,95995.31
2022-10-09T20:51:26.519Z,95988.63
2022-10-09T20:53:56.557Z,95987.06
2022-10-09T20:56:25.645Z,95983.13
2022-10-09T20:58:53.488Z,95991.47
2022-10-09T21:01:20.857Z,95986.34
2022-10-09T21:03:49.393Z,95982.00
2022-10-09T21:06:19.348Z,95987.13
2022-10-09T21:08:46.550Z,95985.53
2022-10-09T21:11:18.691Z,95977.66
2022-10-09T21:13:46.605Z,95990.25
2022-10-09T21:16:17.122Z,95981.56
2022-10-09T21:18:44.241Z,95980.06
2022-10-09T21:21:17.272Z,95981.25
2022-10-09T21:23:45.588Z,95974.16
2022-10-09T21:26:17.323Z,95974.56
2022-10-09T21:28:45.264Z,95970.66
2022-10-09T21:31:19.543Z,95980.84
2022-10-09T21:33:47.257Z,95976.53
2022-10-09T21:36:36.076Z,95974.56
2022-10-09T21:39:05.429Z,95974.94
2022-10-09T21:41:33.151Z,95965.91
2022-10-09T21:44:01.016Z,95973.34
2022-10-09T21:46:28.620Z,95968.25
2022-10-09T21:48:55.733Z,95976.94
2022-10-09T21:51:23.310Z,95972.19
2022-10-09T21:53:50.539Z,95974.56
2022-10-09T21:56:18.155Z,95976.16
2022-10-09T21:58:48.939Z,95966.31
2022-10-09T22:01:16.582Z,95969.88
2022-10-09T22:03:46.379Z,95974.59
2022-10-09T22:06:18.883Z,95976.13
2022-10-09T22:08:47.752Z,95973.03
2022-10-09T22:11:14.985Z,95983.66
2022-10-09T22:13:42.118Z,95980.13
2022-10-09T22:16:11.839Z,95976.19
2022-10-09T22:18:39.407Z,95978.53
2022-10-09T22:21:09.644Z,95984.84
2022-10-09T22:23:37.255Z,95971.44
2022-10-09T22:26:11.426Z,95962.78
2022-10-09T22:28:38.603Z,95976.19
2022-10-09T22:31:16.531Z,95977.38
2022-10-09T22:33:43.944Z,95968.34
2022-10-09T22:36:17.244Z,95975.41
2022-10-09T22:38:44.778Z,95972.69
2022-10-09T22:41:14.701Z,95967.19
2022-10-09T22:43:42.764Z,95969.94
2022-10-09T22:46:12.150Z,95969.56
2022-10-09T22:48:40.093Z,95973.88
2022-10-09T22:51:09.374Z,95966.00
2022-10-09T22:53:37.909Z,95966.78
2022-10-09T22:56:28.892Z,95965.97
2022-10-09T22:58:56.728Z,95961.28
2022-10-09T23:01:31.373Z,95958.94
2022-10-09T23:04:00.870Z,95958.19
2022-10-09T23:06:28.363Z,95950.72
2022-10-09T23:08:55.597Z,95951.13
2022-10-09T23:11:23.130Z,95952.31
2022-10-09T23:13:58.390Z,95945.63
2022-10-09T23:16:26.964Z,95951.13
2022-10-09T23:18:54.567Z,95954.28
2022-10-09T23:21:23.465Z,95953.88
2022-10-09T23:23:51.052Z,95948.00
2022-10-09T23:26:23.640Z,95940.91
2022-10-09T23:29:05.845Z,95943.66
2022-10-09T23:31:33.289Z,95951.13
2022-10-09T23:34:00.472Z,95944.84
2022-10-09T23:36:28.713Z,95940.94
2022-10-09T23:38:56.785Z,95951.91
2022-10-09T23:41:26.403Z,95944.47
2022-10-09T23:43:53.482Z,95952.69
2022-10-09T23:46:26.528Z,95931.50
2022-10-09T23:48:54.196Z,95946.44
2022-10-09T23:51:22.606Z,95946.84
2022-10-09T23:53:50.075Z,95943.28
2022-10-09T23:56:21.648Z,95940.16
2022-10-09T23:58:49.113Z,95937.78
